sensor_id;sensor_type;location;lat;lon;timestamp;P1;durP1;ratioP1;P2;durP2;ratioP2
40745;SDS011;26454;51.164;4.488;2023-08-24T00:00:25;25.08;;;13.98;;
40745;SDS011;26454;51.164;4.488;2023-08-24T00:02:51;20.65;;;13.65;;
40745;SDS011;26454;51.164;4.488;2023-08-24T00:05:17;19.10;;;12.00;;
40745;SDS011;26454;51.164;4.488;2023-08-24T00:07:43;23.38;;;15.57;;
40745;SDS011;26454;51.164;4.488;2023-08-24T00:10:09;29.60;;;18.58;;
40745;SDS011;26454;51.164;4.488;2023-08-24T00:12:35;30.77;;;20.63;;
40745;SDS011;26454;51.164;4.488;2023-08-24T00:15:02;26.02;;;15.77;;
40745;SDS011;26454;51.164;4.488;2023-08-24T00:17:28;22.80;;;14.85;;
40745;SDS011;26454;51.164;4.488;2023-08-24T00:19:54;21.98;;;15.02;;
40745;SDS011;26454;51.164;4.488;2023-08-24T00:22:20;26.58;;;16.73;;
40745;SDS011;26454;51.164;4.488;2023-08-24T00:24:46;32.47;;;18.67;;
40745;SDS011;26454;51.164;4.488;2023-08-24T00:27:12;35.22;;;19.67;;
40745;SDS011;26454;51.164;4.488;2023-08-24T00:29:38;23.85;;;15.55;;
40745;SDS011;26454;51.164;4.488;2023-08-24T00:32:05;16.00;;;10.82;;
40745;SDS011;26454;51.164;4.488;2023-08-24T00:34:31;21.75;;;12.05;;
40745;SDS011;26454;51.164;4.488;2023-08-24T00:36:57;22.38;;;12.02;;
40745;SDS011;26454;51.164;4.488;2023-08-24T00:39:23;15.20;;;10.70;;
40745;SDS011;26454;51.164;4.488;2023-08-24T00:41:50;17.73;;;11.43;;
40745;SDS011;26454;51.164;4.488;2023-08-24T00:44:16;21.10;;;11.73;;
40745;SDS011;26454;51.164;4.488;2023-08-24T00:46:42;16.05;;;10.05;;
40745;SDS011;26454;51.164;4.488;2023-08-24T00:49:09;12.00;;;8.63;;
40745;SDS011;26454;51.164;4.488;2023-08-24T00:51:35;16.42;;;10.82;;
40745;SDS011;26454;51.164;4.488;2023-08-24T00:54:01;11.93;;;9.55;;
40745;SDS011;26454;51.164;4.488;2023-08-24T00:56:27;15.45;;;9.82;;
40745;SDS011;26454;51.164;4.488;2023-08-24T00:58:55;15.23;;;10.32;;
40745;SDS011;26454;51.164;4.488;2023-08-24T01:01:21;12.40;;;8.27;;
40745;SDS011;26454;51.164;4.488;2023-08-24T01:03:49;12.02;;;8.52;;
40745;SDS011;26454;51.164;4.488;2023-08-24T01:06:15;13.52;;;8.20;;
40745;SDS011;26454;51.164;4.488;2023-08-24T01:08:41;13.07;;;8.00;;
40745;SDS011;26454;51.164;4.488;2023-08-24T01:16:20;9.90;;;6.93;;
40745;SDS011;26454;51.164;4.488;2023-08-24T01:18:51;9.35;;;7.18;;
40745;SDS011;26454;51.164;4.488;2023-08-24T01:21:19;8.98;;;7.10;;
40745;SDS011;26454;51.164;4.488;2023-08-24T01:23:49;11.55;;;6.95;;
40745;SDS011;26454;51.164;4.488;2023-08-24T01:26:20;8.38;;;6.32;;
40745;SDS011;26454;51.164;4.488;2023-08-24T01:28:46;7.78;;;6.20;;
40745;SDS011;26454;51.164;4.488;2023-08-24T01:31:13;7.95;;;7.03;;
40745;SDS011;26454;51.164;4.488;2023-08-24T01:33:41;10.05;;;6.85;;
40745;SDS011;26454;51.164;4.488;2023-08-24T01:36:08;7.82;;;6.35;;
40745;SDS011;26454;51.164;4.488;2023-08-24T01:38:34;9.68;;;7.07;;
40745;SDS011;26454;51.164;4.488;2023-08-24T01:43:36;13.07;;;7.18;;
40745;SDS011;26454;51.164;4.488;2023-08-24T01:46:04;10.45;;;6.80;;
40745;SDS011;26454;51.164;4.488;2023-08-24T01:48:32;8.38;;;6.78;;
40745;SDS011;26454;51.164;4.488;2023-08-24T01:50:58;8.40;;;6.43;;
40745;SDS011;26454;51.164;4.488;2023-08-24T01:53:25;9.65;;;6.30;;
40745;SDS011;26454;51.164;4.488;2023-08-24T01:55:52;9.80;;;6.07;;
40745;SDS011;26454;51.164;4.488;2023-08-24T01:58:18;9.55;;;7.20;;
40745;SDS011;26454;51.164;4.488;2023-08-24T02:00:44;12.70;;;7.50;;
40745;SDS011;26454;51.164;4.488;2023-08-24T02:03:10;13.07;;;7.10;;
40745;SDS011;26454;51.164;4.488;2023-08-24T02:05:36;12.20;;;7.68;;
40745;SDS011;26454;51.164;4.488;2023-08-24T02:08:03;10.43;;;7.22;;
40745;SDS011;26454;51.164;4.488;2023-08-24T02:10:29;12.13;;;7.63;;
40745;SDS011;26454;51.164;4.488;2023-08-24T02:12:55;11.32;;;7.97;;
40745;SDS011;26454;51.164;4.488;2023-08-24T02:15:21;9.82;;;7.00;;
40745;SDS011;26454;51.164;4.488;2023-08-24T02:17:47;14.10;;;10.02;;
40745;SDS011;26454;51.164;4.488;2023-08-24T02:20:13;14.70;;;9.80;;
40745;SDS011;26454;51.164;4.488;2023-08-24T02:22:40;20.65;;;10.32;;
40745;SDS011;26454;51.164;4.488;2023-08-24T02:25:06;13.02;;;11.30;;
40745;SDS011;26454;51.164;4.488;2023-08-24T02:27:32;19.83;;;11.77;;
40745;SDS011;26454;51.164;4.488;2023-08-24T02:29:58;13.13;;;11.18;;
40745;SDS011;26454;51.164;4.488;2023-08-24T02:32:25;16.63;;;12.20;;
40745;SDS011;26454;51.164;4.488;2023-08-24T02:34:51;19.08;;;11.30;;
40745;SDS011;26454;51.164;4.488;2023-08-24T02:37:17;17.33;;;13.57;;
40745;SDS011;26454;51.164;4.488;2023-08-24T02:39:43;20.52;;;15.35;;
40745;SDS011;26454;51.164;4.488;2023-08-24T02:42:09;17.25;;;12.88;;
40745;SDS011;26454;51.164;4.488;2023-08-24T02:44:36;18.27;;;12.27;;
40745;SDS011;26454;51.164;4.488;2023-08-24T02:47:02;20.42;;;13.65;;
40745;SDS011;26454;51.164;4.488;2023-08-24T02:49:28;21.15;;;15.27;;
40745;SDS011;26454;51.164;4.488;2023-08-24T02:51:54;23.08;;;13.95;;
40745;SDS011;26454;51.164;4.488;2023-08-24T02:54:20;14.02;;;12.60;;
40745;SDS011;26454;51.164;4.488;2023-08-24T02:56:46;14.75;;;13.00;;
40745;SDS011;26454;51.164;4.488;2023-08-24T02:59:12;14.65;;;11.38;;
40745;SDS011;26454;51.164;4.488;2023-08-24T03:01:38;20.65;;;14.82;;
40745;SDS011;26454;51.164;4.488;2023-08-24T03:04:06;14.77;;;12.50;;
40745;SDS011;26454;51.164;4.488;2023-08-24T03:06:32;24.02;;;16.17;;
40745;SDS011;26454;51.164;4.488;2023-08-24T03:08:59;15.82;;;13.63;;
40745;SDS011;26454;51.164;4.488;2023-08-24T03:11:25;21.35;;;15.18;;
40745;SDS011;26454;51.164;4.488;2023-08-24T03:13:51;19.25;;;15.32;;
40745;SDS011;26454;51.164;4.488;2023-08-24T03:16:17;19.67;;;15.35;;
40745;SDS011;26454;51.164;4.488;2023-08-24T03:18:45;18.05;;;14.27;;
40745;SDS011;26454;51.164;4.488;2023-08-24T03:21:11;16.65;;;13.82;;
40745;SDS011;26454;51.164;4.488;2023-08-24T03:23:37;19.05;;;13.80;;
40745;SDS011;26454;51.164;4.488;2023-08-24T03:26:03;23.17;;;17.10;;
40745;SDS011;26454;51.164;4.488;2023-08-24T03:28:29;17.08;;;13.68;;
40745;SDS011;26454;51.164;4.488;2023-08-24T03:30:55;18.42;;;14.68;;
40745;SDS011;26454;51.164;4.488;2023-08-24T03:33:21;18.05;;;15.73;;
40745;SDS011;26454;51.164;4.488;2023-08-24T03:35:48;17.73;;;15.95;;
40745;SDS011;26454;51.164;4.488;2023-08-24T03:38:14;23.30;;;14.88;;
40745;SDS011;26454;51.164;4.488;2023-08-24T03:40:40;19.38;;;15.98;;
40745;SDS011;26454;51.164;4.488;2023-08-24T03:43:06;17.02;;;15.20;;
40745;SDS011;26454;51.164;4.488;2023-08-24T03:45:32;18.20;;;15.20;;
40745;SDS011;26454;51.164;4.488;2023-08-24T03:47:59;17.80;;;15.98;;
40745;SDS011;26454;51.164;4.488;2023-08-24T03:50:25;17.80;;;15.43;;
40745;SDS011;26454;51.164;4.488;2023-08-24T03:52:51;21.98;;;16.30;;
40745;SDS011;26454;51.164;4.488;2023-08-24T03:55:19;21.55;;;16.67;;
40745;SDS011;26454;51.164;4.488;2023-08-24T03:57:45;21.70;;;16.63;;
40745;SDS011;26454;51.164;4.488;2023-08-24T04:00:11;18.35;;;14.55;;
40745;SDS011;26454;51.164;4.488;2023-08-24T04:02:39;17.67;;;15.32;;
40745;SDS011;26454;51.164;4.488;2023-08-24T04:05:06;21.48;;;15.02;;
40745;SDS011;26454;51.164;4.488;2023-08-24T04:07:32;18.63;;;14.60;;
40745;SDS011;26454;51.164;4.488;2023-08-24T04:10:01;15.88;;;14.20;;
40745;SDS011;26454;51.164;4.488;2023-08-24T04:12:28;19.05;;;15.00;;
40745;SDS011;26454;51.164;4.488;2023-08-24T04:14:54;16.65;;;14.88;;
40745;SDS011;26454;51.164;4.488;2023-08-24T04:17:21;17.98;;;13.93;;
40745;SDS011;26454;51.164;4.488;2023-08-24T04:19:47;20.63;;;15.50;;
40745;SDS011;26454;51.164;4.488;2023-08-24T04:22:13;20.98;;;16.08;;
40745;SDS011;26454;51.164;4.488;2023-08-24T04:24:39;17.95;;;15.98;;
40745;SDS011;26454;51.164;4.488;2023-08-24T04:27:05;19.35;;;14.82;;
40745;SDS011;26454;51.164;4.488;2023-08-24T04:29:31;21.70;;;15.30;;
40745;SDS011;26454;51.164;4.488;2023-08-24T04:31:57;21.88;;;16.20;;
40745;SDS011;26454;51.164;4.488;2023-08-24T04:34:24;21.13;;;17.15;;
40745;SDS011;26454;51.164;4.488;2023-08-24T04:36:50;16.00;;;14.20;;
40745;SDS011;26454;51.164;4.488;2023-08-24T04:39:16;20.30;;;16.90;;
40745;SDS011;26454;51.164;4.488;2023-08-24T04:41:43;23.38;;;17.55;;
40745;SDS011;26454;51.164;4.488;2023-08-24T04:44:10;27.38;;;20.75;;
40745;SDS011;26454;51.164;4.488;2023-08-24T04:46:36;27.42;;;18.80;;
40745;SDS011;26454;51.164;4.488;2023-08-24T04:49:02;18.55;;;16.45;;
40745;SDS011;26454;51.164;4.488;2023-08-24T04:51:28;18.60;;;15.32;;
40745;SDS011;26454;51.164;4.488;2023-08-24T04:53:54;22.00;;;18.15;;
40745;SDS011;26454;51.164;4.488;2023-08-24T04:56:20;16.95;;;15.23;;
40745;SDS011;26454;51.164;4.488;2023-08-24T04:58:52;20.17;;;14.77;;
40745;SDS011;26454;51.164;4.488;2023-08-24T05:01:19;19.88;;;15.80;;
40745;SDS011;26454;51.164;4.488;2023-08-24T05:03:45;22.00;;;15.85;;
40745;SDS011;26454;51.164;4.488;2023-08-24T05:06:11;18.80;;;16.77;;
40745;SDS011;26454;51.164;4.488;2023-08-24T05:08:37;20.67;;;18.10;;
40745;SDS011;26454;51.164;4.488;2023-08-24T05:11:10;17.45;;;14.85;;
40745;SDS011;26454;51.164;4.488;2023-08-24T05:13:36;19.77;;;16.10;;
40745;SDS011;26454;51.164;4.488;2023-08-24T05:16:02;18.08;;;16.17;;
40745;SDS011;26454;51.164;4.488;2023-08-24T05:18:28;18.23;;;14.50;;
40745;SDS011;26454;51.164;4.488;2023-08-24T05:20:54;22.98;;;18.33;;
40745;SDS011;26454;51.164;4.488;2023-08-24T05:23:20;19.55;;;17.00;;
40745;SDS011;26454;51.164;4.488;2023-08-24T05:25:46;21.30;;;16.90;;
40745;SDS011;26454;51.164;4.488;2023-08-24T05:28:12;21.90;;;15.82;;
40745;SDS011;26454;51.164;4.488;2023-08-24T05:30:38;19.25;;;17.10;;
40745;SDS011;26454;51.164;4.488;2023-08-24T05:33:04;16.92;;;15.23;;
40745;SDS011;26454;51.164;4.488;2023-08-24T05:35:30;23.27;;;17.48;;
40745;SDS011;26454;51.164;4.488;2023-08-24T05:37:56;17.95;;;16.13;;
40745;SDS011;26454;51.164;4.488;2023-08-24T05:40:22;20.17;;;15.38;;
40745;SDS011;26454;51.164;4.488;2023-08-24T05:42:48;21.90;;;15.80;;
40745;SDS011;26454;51.164;4.488;2023-08-24T05:45:14;22.15;;;16.60;;
40745;SDS011;26454;51.164;4.488;2023-08-24T05:47:40;17.02;;;14.80;;
40745;SDS011;26454;51.164;4.488;2023-08-24T05:50:06;19.38;;;13.75;;
40745;SDS011;26454;51.164;4.488;2023-08-24T05:52:33;14.98;;;13.38;;
40745;SDS011;26454;51.164;4.488;2023-08-24T05:54:59;18.95;;;14.40;;
40745;SDS011;26454;51.164;4.488;2023-08-24T05:57:25;19.50;;;13.82;;
40745;SDS011;26454;51.164;4.488;2023-08-24T05:59:51;15.25;;;13.15;;
40745;SDS011;26454;51.164;4.488;2023-08-24T06:02:17;15.23;;;13.68;;
40745;SDS011;26454;51.164;4.488;2023-08-24T06:04:43;16.50;;;13.35;;
40745;SDS011;26454;51.164;4.488;2023-08-24T06:07:09;16.83;;;13.90;;
40745;SDS011;26454;51.164;4.488;2023-08-24T06:09:35;17.40;;;12.52;;
40745;SDS011;26454;51.164;4.488;2023-08-24T06:12:01;15.95;;;12.90;;
40745;SDS011;26454;51.164;4.488;2023-08-24T06:14:27;15.75;;;11.35;;
40745;SDS011;26454;51.164;4.488;2023-08-24T06:16:53;15.57;;;11.63;;
40745;SDS011;26454;51.164;4.488;2023-08-24T06:19:20;17.10;;;11.98;;
40745;SDS011;26454;51.164;4.488;2023-08-24T06:21:46;15.35;;;11.43;;
40745;SDS011;26454;51.164;4.488;2023-08-24T06:24:12;13.75;;;11.82;;
40745;SDS011;26454;51.164;4.488;2023-08-24T06:26:38;13.63;;;11.48;;
40745;SDS011;26454;51.164;4.488;2023-08-24T06:29:04;14.45;;;12.05;;
40745;SDS011;26454;51.164;4.488;2023-08-24T06:31:30;14.25;;;12.27;;
40745;SDS011;26454;51.164;4.488;2023-08-24T06:33:58;16.13;;;11.80;;
40745;SDS011;26454;51.164;4.488;2023-08-24T06:36:24;15.13;;;11.15;;
40745;SDS011;26454;51.164;4.488;2023-08-24T06:38:51;13.23;;;10.93;;
40745;SDS011;26454;51.164;4.488;2023-08-24T06:41:17;13.75;;;10.68;;
40745;SDS011;26454;51.164;4.488;2023-08-24T06:43:43;15.25;;;10.40;;
40745;SDS011;26454;51.164;4.488;2023-08-24T06:46:09;13.20;;;11.23;;
40745;SDS011;26454;51.164;4.488;2023-08-24T06:48:36;14.75;;;11.32;;
40745;SDS011;26454;51.164;4.488;2023-08-24T06:51:03;12.07;;;10.60;;
40745;SDS011;26454;51.164;4.488;2023-08-24T06:53:29;17.70;;;10.68;;
40745;SDS011;26454;51.164;4.488;2023-08-24T06:55:57;14.52;;;10.60;;
40745;SDS011;26454;51.164;4.488;2023-08-24T06:58:23;13.65;;;10.75;;
40745;SDS011;26454;51.164;4.488;2023-08-24T07:00:49;16.42;;;10.90;;
40745;SDS011;26454;51.164;4.488;2023-08-24T07:03:17;17.83;;;10.73;;
40745;SDS011;26454;51.164;4.488;2023-08-24T07:05:43;13.75;;;9.20;;
40745;SDS011;26454;51.164;4.488;2023-08-24T07:08:09;16.98;;;10.25;;
40745;SDS011;26454;51.164;4.488;2023-08-24T07:10:35;14.07;;;10.82;;
40745;SDS011;26454;51.164;4.488;2023-08-24T07:13:01;13.82;;;11.20;;
40745;SDS011;26454;51.164;4.488;2023-08-24T07:15:27;12.07;;;10.43;;
40745;SDS011;26454;51.164;4.488;2023-08-24T07:17:53;12.05;;;9.75;;
40745;SDS011;26454;51.164;4.488;2023-08-24T07:20:19;10.88;;;8.25;;
40745;SDS011;26454;51.164;4.488;2023-08-24T07:22:45;13.40;;;9.27;;
40745;SDS011;26454;51.164;4.488;2023-08-24T07:25:12;12.48;;;9.45;;
40745;SDS011;26454;51.164;4.488;2023-08-24T07:27:40;12.02;;;8.80;;
40745;SDS011;26454;51.164;4.488;2023-08-24T07:30:06;9.65;;;8.23;;
40745;SDS011;26454;51.164;4.488;2023-08-24T07:32:32;13.07;;;8.73;;
40745;SDS011;26454;51.164;4.488;2023-08-24T07:34:58;15.45;;;9.93;;
40745;SDS011;26454;51.164;4.488;2023-08-24T07:37:25;12.50;;;9.82;;
40745;SDS011;26454;51.164;4.488;2023-08-24T07:39:51;10.02;;;8.27;;
40745;SDS011;26454;51.164;4.488;2023-08-24T07:42:19;11.38;;;9.90;;
40745;SDS011;26454;51.164;4.488;2023-08-24T07:44:47;11.88;;;8.70;;
40745;SDS011;26454;51.164;4.488;2023-08-24T07:47:13;10.77;;;8.23;;
40745;SDS011;26454;51.164;4.488;2023-08-24T07:49:41;12.05;;;8.73;;
40745;SDS011;26454;51.164;4.488;2023-08-24T07:52:11;8.95;;;8.05;;
40745;SDS011;26454;51.164;4.488;2023-08-24T07:54:38;10.98;;;8.75;;
40745;SDS011;26454;51.164;4.488;2023-08-24T07:57:05;15.02;;;9.65;;
40745;SDS011;26454;51.164;4.488;2023-08-24T07:59:31;13.60;;;10.00;;
40745;SDS011;26454;51.164;4.488;2023-08-24T08:01:57;13.35;;;8.75;;
40745;SDS011;26454;51.164;4.488;2023-08-24T08:04:23;11.88;;;7.55;;
40745;SDS011;26454;51.164;4.488;2023-08-24T08:06:49;8.32;;;7.40;;
40745;SDS011;26454;51.164;4.488;2023-08-24T08:09:16;14.52;;;9.02;;
40745;SDS011;26454;51.164;4.488;2023-08-24T08:11:42;10.80;;;7.55;;
40745;SDS011;26454;51.164;4.488;2023-08-24T08:14:08;13.68;;;9.40;;
40745;SDS011;26454;51.164;4.488;2023-08-24T08:16:35;11.60;;;7.60;;
40745;SDS011;26454;51.164;4.488;2023-08-24T08:19:01;9.85;;;7.97;;
40745;SDS011;26454;51.164;4.488;2023-08-24T08:21:27;10.02;;;7.55;;
40745;SDS011;26454;51.164;4.488;2023-08-24T08:23:54;17.50;;;9.65;;
40745;SDS011;26454;51.164;4.488;2023-08-24T08:26:20;13.55;;;9.50;;
40745;SDS011;26454;51.164;4.488;2023-08-24T08:28:46;18.48;;;9.65;;
40745;SDS011;26454;51.164;4.488;2023-08-24T08:31:13;16.85;;;8.90;;
40745;SDS011;26454;51.164;4.488;2023-08-24T08:33:39;12.55;;;9.40;;
40745;SDS011;26454;51.164;4.488;2023-08-24T08:36:05;13.30;;;8.73;;
40745;SDS011;26454;51.164;4.488;2023-08-24T08:38:32;15.07;;;9.13;;
40745;SDS011;26454;51.164;4.488;2023-08-24T08:41:01;11.18;;;8.48;;
40745;SDS011;26454;51.164;4.488;2023-08-24T08:43:28;12.73;;;9.85;;
40745;SDS011;26454;51.164;4.488;2023-08-24T08:45:55;11.20;;;8.73;;
40745;SDS011;26454;51.164;4.488;2023-08-24T08:48:21;12.38;;;10.02;;
40745;SDS011;26454;51.164;4.488;2023-08-24T08:50:48;11.02;;;9.20;;
40745;SDS011;26454;51.164;4.488;2023-08-24T08:53:15;10.75;;;8.98;;
40745;SDS011;26454;51.164;4.488;2023-08-24T08:55:41;10.63;;;7.80;;
40745;SDS011;26454;51.164;4.488;2023-08-24T08:58:07;11.07;;;7.68;;
40745;SDS011;26454;51.164;4.488;2023-08-24T09:00:33;11.23;;;8.20;;
40745;SDS011;26454;51.164;4.488;2023-08-24T09:02:59;11.43;;;8.55;;
40745;SDS011;26454;51.164;4.488;2023-08-24T09:05:27;13.90;;;8.20;;
40745;SDS011;26454;51.164;4.488;2023-08-24T09:07:54;11.43;;;9.10;;
40745;SDS011;26454;51.164;4.488;2023-08-24T09:10:21;13.57;;;9.30;;
40745;SDS011;26454;51.164;4.488;2023-08-24T09:12:47;13.18;;;8.30;;
40745;SDS011;26454;51.164;4.488;2023-08-24T09:15:13;15.30;;;9.52;;
40745;SDS011;26454;51.164;4.488;2023-08-24T09:17:42;11.68;;;7.85;;
40745;SDS011;26454;51.164;4.488;2023-08-24T09:20:09;8.57;;;7.55;;
40745;SDS011;26454;51.164;4.488;2023-08-24T09:22:36;13.02;;;9.07;;
40745;SDS011;26454;51.164;4.488;2023-08-24T09:25:04;14.27;;;9.25;;
40745;SDS011;26454;51.164;4.488;2023-08-24T09:27:31;13.15;;;8.60;;
40745;SDS011;26454;51.164;4.488;2023-08-24T09:29:58;15.68;;;9.40;;
40745;SDS011;26454;51.164;4.488;2023-08-24T09:32:27;16.17;;;10.07;;
40745;SDS011;26454;51.164;4.488;2023-08-24T09:34:54;13.65;;;9.18;;
40745;SDS011;26454;51.164;4.488;2023-08-24T09:37:20;15.07;;;9.82;;
40745;SDS011;26454;51.164;4.488;2023-08-24T09:39:47;12.50;;;8.68;;
40745;SDS011;26454;51.164;4.488;2023-08-24T09:42:13;11.68;;;8.50;;
40745;SDS011;26454;51.164;4.488;2023-08-24T09:44:43;14.07;;;9.77;;
40745;SDS011;26454;51.164;4.488;2023-08-24T09:47:10;14.50;;;9.32;;
40745;SDS011;26454;51.164;4.488;2023-08-24T09:49:36;13.20;;;9.05;;
40745;SDS011;26454;51.164;4.488;2023-08-24T09:52:03;15.63;;;9.55;;
40745;SDS011;26454;51.164;4.488;2023-08-24T09:54:32;18.07;;;10.20;;
40745;SDS011;26454;51.164;4.488;2023-08-24T09:57:01;17.70;;;11.75;;
40745;SDS011;26454;51.164;4.488;2023-08-24T09:59:28;16.17;;;11.70;;
40745;SDS011;26454;51.164;4.488;2023-08-24T10:01:56;21.77;;;12.18;;
40745;SDS011;26454;51.164;4.488;2023-08-24T10:04:24;22.25;;;11.15;;
40745;SDS011;26454;51.164;4.488;2023-08-24T10:06:53;20.23;;;11.68;;
40745;SDS011;26454;51.164;4.488;2023-08-24T10:09:22;17.42;;;11.40;;
40745;SDS011;26454;51.164;4.488;2023-08-24T10:11:49;16.05;;;9.85;;
40745;SDS011;26454;51.164;4.488;2023-08-24T10:14:21;17.15;;;10.95;;
40745;SDS011;26454;51.164;4.488;2023-08-24T10:16:50;16.45;;;9.65;;
40745;SDS011;26454;51.164;4.488;2023-08-24T10:19:17;15.10;;;9.55;;
40745;SDS011;26454;51.164;4.488;2023-08-24T10:21:44;13.63;;;9.82;;
40745;SDS011;26454;51.164;4.488;2023-08-24T10:24:10;17.67;;;10.35;;
40745;SDS011;26454;51.164;4.488;2023-08-24T10:26:39;14.60;;;9.95;;
40745;SDS011;26454;51.164;4.488;2023-08-24T10:29:06;16.88;;;9.90;;
40745;SDS011;26454;51.164;4.488;2023-08-24T10:31:32;13.35;;;9.40;;
40745;SDS011;26454;51.164;4.488;2023-08-24T10:33:59;16.52;;;10.18;;
40745;SDS011;26454;51.164;4.488;2023-08-24T10:36:26;17.42;;;9.60;;
40745;SDS011;26454;51.164;4.488;2023-08-24T10:38:54;13.35;;;10.98;;
40745;SDS011;26454;51.164;4.488;2023-08-24T10:41:23;21.50;;;13.70;;
40745;SDS011;26454;51.164;4.488;2023-08-24T10:43:52;19.05;;;13.35;;
40745;SDS011;26454;51.164;4.488;2023-08-24T10:46:18;16.88;;;13.73;;
40745;SDS011;26454;51.164;4.488;2023-08-24T10:48:57;24.27;;;16.77;;
40745;SDS011;26454;51.164;4.488;2023-08-24T10:51:24;22.88;;;13.93;;
40745;SDS011;26454;51.164;4.488;2023-08-24T10:53:59;21.02;;;14.23;;
40745;SDS011;26454;51.164;4.488;2023-08-24T10:56:30;15.82;;;12.20;;
40745;SDS011;26454;51.164;4.488;2023-08-24T11:01:34;25.92;;;15.98;;
40745;SDS011;26454;51.164;4.488;2023-08-24T11:04:00;19.10;;;12.63;;
40745;SDS011;26454;51.164;4.488;2023-08-24T11:06:26;17.00;;;12.77;;
40745;SDS011;26454;51.164;4.488;2023-08-24T11:11:30;11.68;;;10.48;;
40745;SDS011;26454;51.164;4.488;2023-08-24T11:19:10;12.43;;;8.90;;
40745;SDS011;26454;51.164;4.488;2023-08-24T11:21:38;11.95;;;9.55;;
40745;SDS011;26454;51.164;4.488;2023-08-24T11:24:05;14.40;;;9.20;;
40745;SDS011;26454;51.164;4.488;2023-08-24T11:26:33;10.35;;;8.15;;
40745;SDS011;26454;51.164;4.488;2023-08-24T11:28:59;16.15;;;9.95;;
40745;SDS011;26454;51.164;4.488;2023-08-24T11:31:25;14.07;;;7.40;;
40745;SDS011;26454;51.164;4.488;2023-08-24T11:33:54;12.82;;;7.40;;
40745;SDS011;26454;51.164;4.488;2023-08-24T11:36:21;10.85;;;7.72;;
40745;SDS011;26454;51.164;4.488;2023-08-24T11:38:51;11.15;;;7.00;;
40745;SDS011;26454;51.164;4.488;2023-08-24T11:41:18;8.05;;;6.53;;
40745;SDS011;26454;51.164;4.488;2023-08-24T11:43:47;12.05;;;6.03;;
40745;SDS011;26454;51.164;4.488;2023-08-24T11:46:15;8.65;;;5.55;;
40745;SDS011;26454;51.164;4.488;2023-08-24T11:48:42;9.60;;;6.45;;
40745;SDS011;26454;51.164;4.488;2023-08-24T11:51:09;9.98;;;5.57;;
40745;SDS011;26454;51.164;4.488;2023-08-24T11:53:40;11.77;;;5.10;;
40745;SDS011;26454;51.164;4.488;2023-08-24T11:56:08;7.82;;;5.80;;
40745;SDS011;26454;51.164;4.488;2023-08-24T11:58:37;8.05;;;6.03;;
40745;SDS011;26454;51.164;4.488;2023-08-24T12:01:03;11.13;;;5.07;;
40745;SDS011;26454;51.164;4.488;2023-08-24T12:03:30;6.93;;;5.53;;
40745;SDS011;26454;51.164;4.488;2023-08-24T12:05:59;9.25;;;5.47;;
40745;SDS011;26454;51.164;4.488;2023-08-24T12:08:26;8.88;;;5.60;;
40745;SDS011;26454;51.164;4.488;2023-08-24T12:10:52;7.53;;;4.80;;
40745;SDS011;26454;51.164;4.488;2023-08-24T12:13:18;8.32;;;4.40;;
40745;SDS011;26454;51.164;4.488;2023-08-24T12:15:44;6.72;;;4.93;;
40745;SDS011;26454;51.164;4.488;2023-08-24T12:18:13;6.85;;;4.60;;
40745;SDS011;26454;51.164;4.488;2023-08-24T12:20:39;8.02;;;4.50;;
40745;SDS011;26454;51.164;4.488;2023-08-24T12:23:06;7.22;;;4.07;;
40745;SDS011;26454;51.164;4.488;2023-08-24T12:25:36;6.93;;;4.20;;
40745;SDS011;26454;51.164;4.488;2023-08-24T12:28:14;8.80;;;4.75;;
40745;SDS011;26454;51.164;4.488;2023-08-24T12:30:48;9.88;;;4.68;;
40745;SDS011;26454;51.164;4.488;2023-08-24T12:33:23;9.90;;;4.30;;
40745;SDS011;26454;51.164;4.488;2023-08-24T12:35:49;9.32;;;4.18;;
40745;SDS011;26454;51.164;4.488;2023-08-24T12:38:16;6.85;;;4.97;;
40745;SDS011;26454;51.164;4.488;2023-08-24T12:40:42;7.40;;;4.72;;
40745;SDS011;26454;51.164;4.488;2023-08-24T12:43:08;4.93;;;4.43;;
40745;SDS011;26454;51.164;4.488;2023-08-24T12:45:34;6.07;;;4.60;;
40745;SDS011;26454;51.164;4.488;2023-08-24T12:48:01;9.55;;;5.35;;
40745;SDS011;26454;51.164;4.488;2023-08-24T12:50:27;7.85;;;4.43;;
40745;SDS011;26454;51.164;4.488;2023-08-24T12:52:53;6.25;;;4.15;;
40745;SDS011;26454;51.164;4.488;2023-08-24T12:55:21;6.72;;;4.18;;
40745;SDS011;26454;51.164;4.488;2023-08-24T12:57:47;7.47;;;3.67;;
40745;SDS011;26454;51.164;4.488;2023-08-24T13:00:14;5.43;;;4.78;;
40745;SDS011;26454;51.164;4.488;2023-08-24T13:02:40;7.07;;;4.55;;
40745;SDS011;26454;51.164;4.488;2023-08-24T13:05:06;7.47;;;4.07;;
40745;SDS011;26454;51.164;4.488;2023-08-24T13:07:33;4.20;;;3.78;;
40745;SDS011;26454;51.164;4.488;2023-08-24T13:09:59;7.93;;;4.68;;
40745;SDS011;26454;51.164;4.488;2023-08-24T13:12:25;7.03;;;4.30;;
40745;SDS011;26454;51.164;4.488;2023-08-24T13:14:51;8.73;;;4.70;;
40745;SDS011;26454;51.164;4.488;2023-08-24T13:17:17;6.38;;;4.85;;
40745;SDS011;26454;51.164;4.488;2023-08-24T13:19:43;7.30;;;4.75;;
40745;SDS011;26454;51.164;4.488;2023-08-24T13:22:10;7.78;;;5.13;;
40745;SDS011;26454;51.164;4.488;2023-08-24T13:24:36;6.72;;;4.32;;
40745;SDS011;26454;51.164;4.488;2023-08-24T13:27:04;7.22;;;5.22;;
40745;SDS011;26454;51.164;4.488;2023-08-24T13:29:36;9.60;;;4.70;;
40745;SDS011;26454;51.164;4.488;2023-08-24T13:32:03;7.90;;;3.90;;
40745;SDS011;26454;51.164;4.488;2023-08-24T13:34:30;8.18;;;4.43;;
40745;SDS011;26454;51.164;4.488;2023-08-24T13:36:57;8.07;;;3.92;;
40745;SDS011;26454;51.164;4.488;2023-08-24T13:39:25;9.07;;;4.07;;
40745;SDS011;26454;51.164;4.488;2023-08-24T13:41:53;6.82;;;4.07;;
40745;SDS011;26454;51.164;4.488;2023-08-24T13:44:19;4.30;;;3.50;;
40745;SDS011;26454;51.164;4.488;2023-08-24T13:46:45;3.97;;;3.25;;
40745;SDS011;26454;51.164;4.488;2023-08-24T13:49:12;7.57;;;3.25;;
40745;SDS011;26454;51.164;4.488;2023-08-24T13:51:38;4.45;;;3.55;;
40745;SDS011;26454;51.164;4.488;2023-08-24T13:54:14;4.55;;;3.40;;
40745;SDS011;26454;51.164;4.488;2023-08-24T13:56:41;4.80;;;2.78;;
40745;SDS011;26454;51.164;4.488;2023-08-24T13:59:07;5.68;;;4.00;;
40745;SDS011;26454;51.164;4.488;2023-08-24T14:01:33;4.88;;;3.20;;
40745;SDS011;26454;51.164;4.488;2023-08-24T14:03:59;7.28;;;3.20;;
40745;SDS011;26454;51.164;4.488;2023-08-24T14:06:28;5.57;;;2.88;;
40745;SDS011;26454;51.164;4.488;2023-08-24T14:08:54;4.80;;;3.50;;
40745;SDS011;26454;51.164;4.488;2023-08-24T14:11:20;6.68;;;3.42;;
40745;SDS011;26454;51.164;4.488;2023-08-24T14:13:46;6.38;;;3.67;;
40745;SDS011;26454;51.164;4.488;2023-08-24T14:16:12;7.00;;;3.55;;
40745;SDS011;26454;51.164;4.488;2023-08-24T14:18:38;5.15;;;3.28;;
40745;SDS011;26454;51.164;4.488;2023-08-24T14:21:05;4.75;;;2.78;;
40745;SDS011;26454;51.164;4.488;2023-08-24T14:23:31;9.90;;;3.38;;
40745;SDS011;26454;51.164;4.488;2023-08-24T14:25:57;7.97;;;2.90;;
40745;SDS011;26454;51.164;4.488;2023-08-24T14:28:23;5.00;;;2.45;;
40745;SDS011;26454;51.164;4.488;2023-08-24T14:30:49;5.07;;;3.78;;
40745;SDS011;26454;51.164;4.488;2023-08-24T14:33:15;7.68;;;3.28;;
40745;SDS011;26454;51.164;4.488;2023-08-24T14:35:48;7.30;;;3.50;;
40745;SDS011;26454;51.164;4.488;2023-08-24T14:38:14;7.57;;;3.28;;
40745;SDS011;26454;51.164;4.488;2023-08-24T14:40:40;4.20;;;2.78;;
40745;SDS011;26454;51.164;4.488;2023-08-24T14:43:06;5.20;;;3.08;;
40745;SDS011;26454;51.164;4.488;2023-08-24T14:45:32;9.10;;;3.67;;